createdAt,value
2019-04-25T00:02:24.694Z,20.10
2019-04-25T00:04:53.411Z,18.35
2019-04-25T00:07:22.434Z,18.95
2019-04-25T00:09:53.939Z,19.07
2019-04-25T00:12:23.461Z,18.57
2019-04-25T00:14:52.190Z,20.27
2019-04-25T00:17:21.829Z,20.35
2019-04-25T00:19:51.098Z,20.35
2019-04-25T00:22:39.303Z,18.85
2019-04-25T00:25:25.854Z,19.62
2019-04-25T00:27:54.578Z,20.10
2019-04-25T00:30:24.924Z,20.50
2019-04-25T00:32:53.703Z,19.75
2019-04-25T00:35:22.486Z,20.97
2019-04-25T00:37:52.505Z,20.72
2019-04-25T00:40:21.975Z,19.60
2019-04-25T00:42:53.439Z,18.95
2019-04-25T00:45:22.286Z,20.95
2019-04-25T00:47:51.872Z,20.65
2019-04-25T00:50:21.956Z,22.05
2019-04-25T00:52:52.188Z,20.17
2019-04-25T00:55:28.587Z,19.82
2019-04-25T00:57:54.197Z,20.62
2019-04-25T01:00:41.612Z,21.02
2019-04-25T01:03:14.171Z,23.30
2019-04-25T01:05:44.349Z,23.10
2019-04-25T01:08:14.002Z,24.92
2019-04-25T01:10:44.279Z,20.60
2019-04-25T01:13:13.179Z,21.02
2019-04-25T01:15:42.476Z,21.85
2019-04-25T01:18:12.295Z,21.02
2019-04-25T01:20:43.223Z,20.00
2019-04-25T01:23:13.670Z,19.48
2019-04-25T01:25:44.578Z,18.35
2019-04-25T01:28:13.554Z,18.50
2019-04-25T01:30:43.885Z,21.45
2019-04-25T01:33:14.120Z,19.42
2019-04-25T01:36:07.599Z,19.62
2019-04-25T01:38:47.424Z,24.82
2019-04-25T01:41:36.890Z,28.05
2019-04-25T01:44:28.288Z,27.35
2019-04-25T01:46:58.184Z,19.60
2019-04-25T01:49:27.710Z,19.73
2019-04-25T01:51:57.508Z,18.50
2019-04-25T01:54:28.376Z,19.77
2019-04-25T01:56:57.724Z,19.77
2019-04-25T01:59:27.159Z,18.92
2019-04-25T02:01:56.799Z,21.42
2019-04-25T02:04:26.411Z,20.20
2019-04-25T02:06:55.738Z,18.92
2019-04-25T02:09:25.777Z,18.35
2019-04-25T02:12:00.655Z,17.87
2019-04-25T02:14:30.003Z,19.80
2019-04-25T02:17:00.243Z,18.80
2019-04-25T02:19:29.998Z,18.55
2019-04-25T02:21:59.885Z,18.57
2019-04-25T02:24:29.466Z,16.32
2019-04-25T02:26:58.819Z,19.57
2019-04-25T02:29:28.224Z,17.32
2019-04-25T02:32:00.170Z,18.92
2019-04-25T02:34:28.624Z,16.35
2019-04-25T02:37:01.042Z,17.25
2019-04-25T02:39:30.082Z,17.73
2019-04-25T02:42:01.101Z,17.35
2019-04-25T02:44:34.335Z,18.00
2019-04-25T02:47:20.154Z,17.87
2019-04-25T02:50:03.260Z,18.00
2019-04-25T02:52:39.083Z,17.32
2019-04-25T02:55:11.448Z,16.37
2019-04-25T02:57:41.214Z,17.05
2019-04-25T03:00:18.735Z,17.40
2019-04-25T03:02:48.154Z,18.27
2019-04-25T03:05:18.172Z,16.23
2019-04-25T03:07:47.992Z,14.68
2019-04-25T03:10:17.409Z,16.15
2019-04-25T03:12:46.828Z,15.55
2019-04-25T03:15:16.569Z,16.07
2019-04-25T03:17:46.497Z,16.80
2019-04-25T03:20:29.172Z,17.05
2019-04-25T03:23:07.265Z,17.65
2019-04-25T03:25:35.066Z,16.17
2019-04-25T03:28:05.860Z,18.50
2019-04-25T03:30:35.706Z,18.75
2019-04-25T03:33:10.483Z,17.12
2019-04-25T03:35:36.223Z,18.32
2019-04-25T03:38:06.381Z,16.65
2019-04-25T03:40:36.074Z,17.57
2019-04-25T03:43:06.249Z,16.17
2019-04-25T03:45:36.440Z,16.40
2019-04-25T03:48:06.465Z,17.85
2019-04-25T03:50:35.838Z,17.05
2019-04-25T03:53:06.502Z,14.38
2019-04-25T03:55:36.091Z,17.73
2019-04-25T03:58:08.761Z,18.62
2019-04-25T04:00:36.587Z,21.42
2019-04-25T04:03:07.651Z,20.20
2019-04-25T04:05:37.017Z,21.65
2019-04-25T04:08:06.506Z,20.40
2019-04-25T04:10:35.849Z,18.60
2019-04-25T04:13:06.330Z,22.05
2019-04-25T04:15:36.478Z,17.23
2019-04-25T04:18:16.257Z,19.80
2019-04-25T04:21:17.273Z,18.35
2019-04-25T04:24:11.764Z,18.87
2019-04-25T04:26:42.752Z,17.17
2019-04-25T04:29:14.129Z,18.02
2019-04-25T04:31:43.587Z,17.20
2019-04-25T04:34:14.687Z,18.92
2019-04-25T04:36:46.524Z,18.15
2019-04-25T04:39:16.818Z,21.23
2019-04-25T04:41:46.126Z,21.35
2019-04-25T04:44:16.428Z,20.02
2019-04-25T04:46:45.996Z,21.23
2019-04-25T04:49:15.382Z,17.82
2019-04-25T04:51:44.752Z,19.98
2019-04-25T04:54:14.656Z,21.90
2019-04-25T04:56:45.205Z,20.05
2019-04-25T04:59:15.461Z,20.20
2019-04-25T05:02:03.339Z,18.32
2019-04-25T05:04:45.114Z,17.62
2019-04-25T05:07:33.876Z,18.32
2019-04-25T05:10:03.960Z,17.42
2019-04-25T05:12:33.926Z,19.27
2019-04-25T05:15:04.494Z,18.27
2019-04-25T05:17:34.264Z,17.98
2019-04-25T05:20:04.350Z,17.80
2019-04-25T05:22:34.327Z,19.98
2019-04-25T05:25:03.778Z,15.88
2019-04-25T05:27:42.792Z,17.12
2019-04-25T05:30:05.185Z,19.55
2019-04-25T05:32:34.651Z,17.95
2019-04-25T05:35:04.763Z,17.40
2019-04-25T05:37:34.110Z,17.90
2019-04-25T05:40:05.518Z,15.93
2019-04-25T05:43:13.376Z,18.32
2019-04-25T05:45:44.000Z,16.05
2019-04-25T05:48:15.150Z,17.42
2019-04-25T05:50:44.741Z,18.27
2019-04-25T05:53:14.229Z,18.00
2019-04-25T05:55:44.113Z,17.60
2019-04-25T05:58:13.848Z,17.32
2019-04-25T06:00:44.049Z,16.37
2019-04-25T06:03:13.757Z,16.30
2019-04-25T06:05:43.522Z,18.45
2019-04-25T06:08:14.138Z,16.62
2019-04-25T06:11:05.438Z,17.05
2019-04-25T06:13:40.214Z,15.63
2019-04-25T06:16:18.570Z,17.30
2019-04-25T06:18:57.422Z,16.30
2019-04-25T06:21:27.534Z,15.95
2019-04-25T06:24:16.015Z,17.98
2019-04-25T06:27:17.576Z,17.42
2019-04-25T06:29:58.089Z,16.12
2019-04-25T06:32:21.382Z,16.52
2019-04-25T06:34:50.819Z,16.48
2019-04-25T06:37:21.220Z,15.53
2019-04-25T06:39:50.678Z,13.88
2019-04-25T06:42:21.074Z,13.08
2019-04-25T06:45:05.841Z,16.95
2019-04-25T06:47:47.792Z,14.50
2019-04-25T06:50:17.160Z,15.18
2019-04-25T06:52:46.503Z,13.10
2019-04-25T06:55:15.851Z,15.45
2019-04-25T06:57:45.237Z,13.13
2019-04-25T07:00:16.442Z,18.17
2019-04-25T07:02:45.784Z,15.70
2019-04-25T07:05:26.537Z,14.45
2019-04-25T07:07:46.998Z,14.90
2019-04-25T07:10:16.958Z,15.15
2019-04-25T07:12:46.479Z,16.00
2019-04-25T07:15:17.022Z,12.70
2019-04-25T07:17:46.352Z,12.60
2019-04-25T07:20:15.991Z,13.45
2019-04-25T07:22:45.335Z,12.07
2019-04-25T07:25:15.275Z,11.35
2019-04-25T07:28:03.389Z,13.38
2019-04-25T07:30:54.528Z,12.80
2019-04-25T07:33:29.470Z,11.80
2019-04-25T07:35:59.215Z,11.25
2019-04-25T07:38:29.083Z,12.63
2019-04-25T07:40:58.668Z,11.43
2019-04-25T07:43:28.010Z,12.40
2019-04-25T07:45:57.762Z,10.78
2019-04-25T07:48:28.034Z,13.38
2019-04-25T07:50:57.510Z,11.55
2019-04-25T07:53:29.316Z,10.15
2019-04-25T07:55:58.871Z,9.80
2019-04-25T07:58:49.070Z,10.13
2019-04-25T08:01:14.117Z,10.45
2019-04-25T08:03:43.987Z,9.90
2019-04-25T08:06:13.742Z,11.15
2019-04-25T08:08:44.055Z,10.10
2019-04-25T08:11:14.310Z,11.75
2019-04-25T08:13:59.572Z,13.60
2019-04-25T08:16:30.999Z,13.55
2019-04-25T08:19:01.571Z,13.43
2019-04-25T08:21:34.075Z,14.43
2019-04-25T08:24:04.747Z,14.10
2019-04-25T08:26:36.062Z,14.03
2019-04-25T08:29:06.317Z,15.32
2019-04-25T08:31:36.377Z,15.03
2019-04-25T08:34:06.712Z,15.75
2019-04-25T08:36:37.088Z,15.83
2019-04-25T08:39:10.078Z,15.50
2019-04-25T08:41:39.412Z,15.70
2019-04-25T08:44:09.171Z,18.07
2019-04-25T08:46:39.428Z,16.52
2019-04-25T08:49:45.420Z,16.55
2019-04-25T08:52:13.974Z,16.97
2019-04-25T08:54:57.488Z,16.70
2019-04-25T08:57:44.227Z,18.15
2019-04-25T09:00:43.005Z,17.73
2019-04-25T09:03:17.228Z,16.35
2019-04-25T09:05:48.713Z,17.60
2019-04-25T09:08:18.123Z,17.23
2019-04-25T09:10:47.541Z,16.05
2019-04-25T09:13:16.880Z,14.78
2019-04-25T09:15:46.205Z,16.35
2019-04-25T09:18:15.614Z,14.65
2019-04-25T09:20:46.666Z,16.07
2019-04-25T09:23:16.178Z,16.77
2019-04-25T09:25:46.197Z,15.90
2019-04-25T09:28:15.610Z,16.52
2019-04-25T09:30:45.860Z,15.45
2019-04-25T09:33:15.358Z,15.65
2019-04-25T09:35:45.958Z,16.20
2019-04-25T09:38:15.630Z,15.20
2019-04-25T09:40:45.697Z,15.43
2019-04-25T09:43:16.043Z,15.05
2019-04-25T09:46:06.229Z,14.85
2019-04-25T09:48:58.695Z,13.60
2019-04-25T09:51:47.194Z,16.65
2019-04-25T09:54:36.136Z,19.60
2019-04-25T09:57:39.542Z,16.45
2019-04-25T10:00:16.354Z,17.90
2019-04-25T10:02:45.705Z,19.00
2019-04-25T10:05:15.055Z,17.92
2019-04-25T10:07:46.201Z,17.25
2019-04-25T10:10:15.980Z,15.88
2019-04-25T10:12:45.377Z,17.82
2019-04-25T10:15:48.505Z,19.27
2019-04-25T10:18:17.915Z,18.25
2019-04-25T10:20:47.766Z,19.52
2019-04-25T10:23:17.715Z,19.57
2019-04-25T10:25:48.582Z,20.35
2019-04-25T10:28:18.014Z,23.67
2019-04-25T10:30:47.867Z,25.52
2019-04-25T10:33:19.144Z,21.00
2019-04-25T10:35:53.096Z,19.52
2019-04-25T10:38:19.618Z,23.85
2019-04-25T10:40:48.971Z,21.97
2019-04-25T10:43:18.315Z,20.97
2019-04-25T10:45:48.731Z,22.25
2019-04-25T10:48:18.497Z,21.93
2019-04-25T10:50:48.460Z,21.17
2019-04-25T10:53:17.998Z,22.22
2019-04-25T10:55:47.891Z,23.30
2019-04-25T10:58:17.275Z,22.35
2019-04-25T11:00:49.322Z,22.10
2019-04-25T11:03:44.518Z,21.90
2019-04-25T11:06:17.778Z,23.55
2019-04-25T11:08:47.151Z,23.38
2019-04-25T11:11:16.570Z,22.25
2019-04-25T11:13:46.617Z,23.15
2019-04-25T11:16:17.224Z,23.55
2019-04-25T11:18:47.568Z,23.98
2019-04-25T11:21:16.979Z,24.92
2019-04-25T11:23:47.599Z,25.00
2019-04-25T11:26:17.652Z,22.85
2019-04-25T11:28:47.009Z,24.52
2019-04-25T11:31:23.510Z,22.20
2019-04-25T11:33:54.522Z,24.10
2019-04-25T11:36:24.972Z,24.72
2019-04-25T11:39:13.540Z,23.85
2019-04-25T11:41:46.061Z,21.65
2019-04-25T11:44:14.507Z,22.98
2019-04-25T11:46:45.331Z,25.10
2019-04-25T11:49:15.237Z,24.15
2019-04-25T11:52:03.423Z,23.38
2019-04-25T11:54:34.094Z,23.67
2019-04-25T11:57:03.585Z,22.70
2019-04-25T11:59:34.142Z,25.40
2019-04-25T12:02:24.391Z,23.45
2019-04-25T12:04:54.992Z,23.40
2019-04-25T12:07:25.056Z,23.87
2019-04-25T12:09:55.589Z,24.40
2019-04-25T12:12:25.303Z,24.12
2019-04-25T12:14:55.381Z,25.57
2019-04-25T12:17:25.077Z,24.57
2019-04-25T12:19:55.250Z,25.25
2019-04-25T12:22:25.859Z,26.20
2019-04-25T12:24:55.744Z,25.15
2019-04-25T12:27:25.535Z,25.70
2019-04-25T12:29:54.882Z,26.12
2019-04-25T12:32:24.332Z,26.65
2019-04-25T12:34:53.745Z,23.92
2019-04-25T12:37:23.552Z,22.40
2019-04-25T12:39:54.294Z,21.62
2019-04-25T12:42:24.164Z,23.32
2019-04-25T12:45:11.209Z,22.73
2019-04-25T12:47:43.783Z,22.20
2019-04-25T12:50:14.378Z,22.93
2019-04-25T12:52:43.962Z,22.07
2019-04-25T12:55:14.298Z,20.75
2019-04-25T12:57:43.687Z,21.60
2019-04-25T13:00:16.582Z,21.68
2019-04-25T13:02:45.926Z,21.87
2019-04-25T13:05:15.286Z,23.83
2019-04-25T13:07:45.736Z,21.23
2019-04-25T13:10:15.387Z,21.10
2019-04-25T13:12:44.786Z,21.87
2019-04-25T13:15:14.827Z,24.35
2019-04-25T13:17:44.167Z,21.73
2019-04-25T13:20:14.214Z,24.72
2019-04-25T13:22:43.546Z,22.35
2019-04-25T13:25:15.103Z,21.93
2019-04-25T13:28:09.431Z,23.18
2019-04-25T13:31:04.153Z,21.68
2019-04-25T13:33:35.219Z,21.95
2019-04-25T13:36:15.274Z,20.82
2019-04-25T13:38:45.292Z,20.80
2019-04-25T13:41:15.034Z,22.65
2019-04-25T13:43:44.366Z,22.80
2019-04-25T13:46:16.990Z,25.62
2019-04-25T13:48:44.789Z,24.67
2019-04-25T13:51:14.249Z,23.87
2019-04-25T13:53:43.830Z,21.52
2019-04-25T13:56:13.679Z,25.72
2019-04-25T13:58:44.353Z,23.75
2019-04-25T14:01:17.515Z,24.72
2019-04-25T14:03:47.042Z,21.62
2019-04-25T14:06:16.959Z,21.02
2019-04-25T14:08:46.714Z,24.00
2019-04-25T14:11:16.063Z,20.12
2019-04-25T14:13:45.401Z,19.37
2019-04-25T14:16:39.710Z,19.75
2019-04-25T14:19:37.206Z,17.73
2019-04-25T14:22:06.837Z,16.32
2019-04-25T14:24:36.425Z,16.40
2019-04-25T14:27:06.082Z,16.55
2019-04-25T14:29:35.500Z,16.05
2019-04-25T14:32:07.311Z,16.82
2019-04-25T14:34:36.725Z,13.78
2019-04-25T14:37:06.148Z,15.70
2019-04-25T14:39:36.006Z,16.55
2019-04-25T14:42:06.146Z,15.68
2019-04-25T14:44:35.476Z,15.10
2019-04-25T14:47:04.817Z,14.15
2019-04-25T14:49:34.231Z,13.18
2019-04-25T14:52:03.570Z,13.43
2019-04-25T14:54:45.208Z,14.23
2019-04-25T14:57:20.268Z,12.40
2019-04-25T14:59:49.615Z,13.65
2019-04-25T15:02:22.466Z,12.13
2019-04-25T15:04:52.084Z,13.32
2019-04-25T15:07:20.814Z,12.30
2019-04-25T15:09:49.535Z,12.10
2019-04-25T15:12:18.258Z,13.38
2019-04-25T15:14:47.265Z,13.45
2019-04-25T15:17:16.368Z,14.20
2019-04-25T15:19:45.174Z,13.00
2019-04-25T15:22:13.896Z,14.70
2019-04-25T15:24:42.623Z,14.83
2019-04-25T15:27:11.339Z,14.87
2019-04-25T15:29:40.360Z,14.68
2019-04-25T15:32:11.086Z,14.60
2019-04-25T15:34:45.766Z,14.70
2019-04-25T15:37:22.191Z,13.75
2019-04-25T15:39:55.011Z,13.65
2019-04-25T15:42:41.729Z,13.38
2019-04-25T15:45:36.502Z,13.05
2019-04-25T15:48:07.352Z,13.68
2019-04-25T15:50:36.142Z,14.15
2019-04-25T15:53:04.863Z,15.55
2019-04-25T15:55:33.588Z,14.95
2019-04-25T15:58:02.382Z,13.75
2019-04-25T16:00:35.054Z,13.32
2019-04-25T16:03:05.610Z,13.62
2019-04-25T16:05:35.561Z,13.95
2019-04-25T16:08:05.431Z,12.88
2019-04-25T16:10:34.143Z,12.93
2019-04-25T16:13:02.855Z,12.90
2019-04-25T16:15:31.586Z,13.13
2019-04-25T16:18:00.318Z,11.53
2019-04-25T16:20:29.579Z,11.85
2019-04-25T16:23:01.770Z,12.25
2019-04-25T16:25:31.187Z,11.35
2019-04-25T16:28:00.191Z,11.70
2019-04-25T16:30:32.256Z,15.20
2019-04-25T16:33:02.613Z,13.75
2019-04-25T16:35:31.963Z,15.43
2019-04-25T16:38:01.372Z,12.80
2019-04-25T16:40:31.834Z,11.50
2019-04-25T16:43:03.813Z,11.12
2019-04-25T16:45:33.914Z,12.68
2019-04-25T16:48:03.266Z,14.20
2019-04-25T16:50:32.923Z,10.72
2019-04-25T16:53:02.262Z,13.08
2019-04-25T16:55:31.765Z,13.00
2019-04-25T16:58:01.812Z,13.32
2019-04-25T17:00:53.142Z,10.78
2019-04-25T17:03:24.388Z,13.72
2019-04-25T17:05:54.203Z,17.25
2019-04-25T17:08:23.543Z,15.30
2019-04-25T17:10:52.884Z,15.75
2019-04-25T17:13:22.534Z,12.85
2019-04-25T17:16:13.954Z,12.35
2019-04-25T17:18:50.298Z,12.70
2019-04-25T17:21:19.650Z,12.88
2019-04-25T17:23:48.991Z,12.45
2019-04-25T17:26:18.443Z,12.82
2019-04-25T17:28:49.411Z,13.13
2019-04-25T17:32:05.939Z,12.20
2019-04-25T17:35:00.298Z,13.75
2019-04-25T17:37:43.210Z,12.25
2019-04-25T17:40:18.895Z,12.93
2019-04-25T17:42:48.554Z,11.65
2019-04-25T17:45:23.035Z,11.50
2019-04-25T17:47:54.904Z,11.85
2019-04-25T17:50:23.426Z,11.55
2019-04-25T17:52:52.768Z,11.78
2019-04-25T17:55:22.099Z,11.53
2019-04-25T17:57:51.432Z,12.98
2019-04-25T18:00:37.766Z,13.03
2019-04-25T18:03:09.382Z,11.95
2019-04-25T18:05:39.321Z,11.28
2019-04-25T18:08:08.933Z,11.45
2019-04-25T18:10:38.259Z,11.68
2019-04-25T18:13:09.394Z,12.07
2019-04-25T18:16:04.211Z,11.95
2019-04-25T18:18:46.559Z,13.22
2019-04-25T18:21:16.017Z,12.20
2019-04-25T18:24:01.387Z,12.28
2019-04-25T18:26:36.737Z,14.10
2019-04-25T18:29:09.703Z,12.68
2019-04-25T18:31:39.570Z,15.55
2019-04-25T18:34:12.716Z,12.20
2019-04-25T18:36:55.306Z,14.07
2019-04-25T18:39:44.161Z,13.60
2019-04-25T18:42:31.295Z,13.93
2019-04-25T18:45:00.630Z,13.38
2019-04-25T18:47:29.962Z,14.33
2019-04-25T18:49:59.830Z,13.50
2019-04-25T18:52:48.099Z,13.13
2019-04-25T18:55:26.996Z,12.25
2019-04-25T18:58:10.604Z,12.75
2019-04-25T19:00:54.498Z,13.10
2019-04-25T19:03:58.002Z,12.78
2019-04-25T19:06:28.128Z,14.03
2019-04-25T19:08:57.487Z,17.00
2019-04-25T19:11:26.815Z,14.73
2019-04-25T19:13:56.150Z,15.38
2019-04-25T19:16:25.510Z,16.20
2019-04-25T19:18:54.848Z,14.43
2019-04-25T19:21:24.179Z,15.45
2019-04-25T19:23:53.518Z,14.80
2019-04-25T19:26:22.846Z,15.68
2019-04-25T19:28:52.182Z,14.20
2019-04-25T19:31:21.515Z,14.28
2019-04-25T19:33:51.706Z,15.50
2019-04-25T19:36:21.753Z,17.27
2019-04-25T19:38:51.094Z,14.20
2019-04-25T19:41:25.878Z,15.40
2019-04-25T19:43:59.547Z,22.15
2019-04-25T19:46:40.333Z,18.07
2019-04-25T19:49:11.028Z,20.00
2019-04-25T19:51:41.670Z,20.25
2019-04-25T19:54:11.115Z,17.67
2019-04-25T19:56:42.224Z,16.48
2019-04-25T19:59:11.526Z,16.52
2019-04-25T20:01:42.452Z,21.15
2019-04-25T20:04:18.050Z,19.27
2019-04-25T20:07:04.835Z,16.15
2019-04-25T20:10:02.181Z,17.85
2019-04-25T20:12:42.901Z,16.20
2019-04-25T20:15:14.042Z,15.38
2019-04-25T20:17:44.515Z,13.45
2019-04-25T20:20:14.729Z,15.35
2019-04-25T20:22:44.855Z,13.83
2019-04-25T20:25:15.002Z,13.62
2019-04-25T20:27:45.372Z,12.63
2019-04-25T20:30:15.927Z,13.93
2019-04-25T20:32:46.310Z,14.15
2019-04-25T20:35:16.330Z,13.62
2019-04-25T20:37:46.095Z,14.25
2019-04-25T20:40:16.898Z,13.38
2019-04-25T20:42:47.953Z,13.25
2019-04-25T20:45:17.890Z,13.22
2019-04-25T20:47:47.981Z,14.33
2019-04-25T20:50:17.827Z,13.80
2019-04-25T20:52:47.417Z,13.35
2019-04-25T20:55:17.227Z,13.40
2019-04-25T20:57:46.904Z,12.70
2019-04-25T21:00:39.804Z,13.13
2019-04-25T21:03:09.136Z,13.03
2019-04-25T21:05:38.503Z,15.18
2019-04-25T21:08:08.126Z,13.60
2019-04-25T21:10:37.578Z,14.10
2019-04-25T21:13:09.722Z,13.83
2019-04-25T21:16:03.390Z,14.60
2019-04-25T21:18:51.671Z,15.10
2019-04-25T21:21:21.021Z,13.70
2019-04-25T21:23:50.657Z,14.03
2019-04-25T21:26:20.487Z,13.55
2019-04-25T21:28:50.869Z,12.60
2019-04-25T21:31:21.226Z,13.32
2019-04-25T21:33:51.504Z,12.75
2019-04-25T21:36:22.170Z,14.10
2019-04-25T21:38:52.873Z,14.13
2019-04-25T21:41:44.523Z,13.25
2019-04-25T21:44:14.459Z,14.53
2019-04-25T21:46:43.888Z,14.18
2019-04-25T21:49:13.906Z,14.33
2019-04-25T21:51:43.327Z,13.30
2019-04-25T21:54:12.747Z,13.38
2019-04-25T21:56:42.369Z,14.33
2019-04-25T21:59:11.887Z,13.68
2019-04-25T22:01:42.754Z,14.05
2019-04-25T22:04:12.471Z,15.53
2019-04-25T22:06:42.487Z,16.52
2019-04-25T22:09:17.626Z,15.45
2019-04-25T22:11:47.642Z,16.52
2019-04-25T22:14:17.710Z,17.92
2019-04-25T22:16:47.434Z,33.55
2019-04-25T22:19:17.179Z,21.70
2019-04-25T22:21:46.902Z,19.62
2019-04-25T22:24:16.731Z,18.60
2019-04-25T22:26:49.074Z,18.35
2019-04-25T22:29:18.563Z,20.27
2019-04-25T22:31:56.919Z,18.92
2019-04-25T22:34:32.781Z,17.05
2019-04-25T22:37:02.194Z,16.50
2019-04-25T22:39:31.651Z,16.05
2019-04-25T22:42:01.979Z,18.05
2019-04-25T22:44:32.126Z,17.50
2019-04-25T22:47:02.357Z,17.62
2019-04-25T22:49:31.950Z,20.43
2019-04-25T22:52:01.761Z,19.50
2019-04-25T22:54:32.686Z,21.10
2019-04-25T22:57:02.622Z,23.55
2019-04-25T22:59:32.434Z,23.42
2019-04-25T23:02:08.214Z,30.77
2019-04-25T23:04:49.339Z,21.80
2019-04-25T23:07:18.887Z,24.23
2019-04-25T23:09:50.381Z,24.55
2019-04-25T23:12:20.422Z,20.25
2019-04-25T23:14:49.851Z,21.60
2019-04-25T23:17:19.283Z,19.77
2019-04-25T23:19:48.902Z,20.40
2019-04-25T23:22:18.320Z,19.00
2019-04-25T23:24:56.714Z,20.68
2019-04-25T23:27:49.155Z,17.98
2019-04-25T23:30:20.686Z,17.48
2019-04-25T23:32:50.102Z,18.75
2019-04-25T23:35:28.542Z,19.30
2019-04-25T23:37:50.579Z,18.12
2019-04-25T23:40:19.922Z,19.55
2019-04-25T23:42:49.334Z,19.50
2019-04-25T23:45:18.778Z,19.00
2019-04-25T23:47:48.123Z,18.92
2019-04-25T23:50:17.850Z,19.40
2019-04-25T23:52:47.285Z,18.75
2019-04-25T23:55:17.327Z,18.40
2019-04-25T23:57:46.757Z,19.80
